Fayette City, Pennsylvania
Current Conditions -  °F | °C
As of 12:53 AM on Thursday 29 Jan 2015 (Local Time) from KAGC Reporting Station
Haze Haze  
Wind Chill: 16°   Ceiling: Unl
Heat Index: 16°   Visibility: 5mi
Dew Point:   Wind: 3mph
Humidity: 74%   Direction: 140°SE
Pressure: 30.22"   Gusts: NA
Location:  40.1°N, 79.84°W
Report Text: KAGC 290553Z 14003KT 5SM HZ CLR M09/M13 A3022 RMK AO2 SLP260 T10891128 11061 21100 56021 $
Loading
Personal Weather Stations






























Interactive Weather Map New forecast layout! Learn more

10-Day Weather Forecast

Advertisements
Track Severe Weather on mobile